createdAt,value
2017-06-18T03:30:38.212Z,12.50
2017-06-18T03:33:05.943Z,10.97
2017-06-18T03:35:33.671Z,10.73
2017-06-18T03:38:01.756Z,15.53
2017-06-18T03:40:30.170Z,12.77
2017-06-18T03:42:57.814Z,13.37
2017-06-18T03:45:26.585Z,9.83
2017-06-18T03:47:55.009Z,11.13
2017-06-18T03:50:22.657Z,12.10
2017-06-18T03:52:50.319Z,11.40
2017-06-18T03:55:17.974Z,11.83
2017-06-18T03:57:45.624Z,14.27
2017-06-18T04:00:14.039Z,15.03
2017-06-18T04:02:41.745Z,11.90
2017-06-18T04:05:09.401Z,12.03
2017-06-18T04:07:37.386Z,11.10
2017-06-18T04:10:05.802Z,12.87
2017-06-18T04:12:33.449Z,11.73
2017-06-18T04:15:01.147Z,12.27
2017-06-18T04:17:28.807Z,13.50
2017-06-18T04:19:56.483Z,12.37
2017-06-18T04:22:24.135Z,10.70
2017-06-18T04:24:51.808Z,10.07
2017-06-18T04:27:19.448Z,11.70
2017-06-18T04:29:47.412Z,13.60
2017-06-18T04:32:15.077Z,11.10
2017-06-18T04:34:42.726Z,12.40
2017-06-18T04:37:10.398Z,12.77
2017-06-18T04:39:38.041Z,12.10
2017-06-18T04:42:05.704Z,12.47
2017-06-18T04:44:33.357Z,9.40
2017-06-18T04:47:01.029Z,11.70
2017-06-18T04:49:28.684Z,12.53
2017-06-18T04:51:56.342Z,11.77
2017-06-18T04:54:24.126Z,10.37
2017-06-18T04:56:52.200Z,14.17
2017-06-18T04:59:19.844Z,11.00
2017-06-18T05:01:47.506Z,15.93
2017-06-18T05:04:15.174Z,12.37
2017-06-18T05:06:42.841Z,16.40
2017-06-18T05:09:10.510Z,12.80
2017-06-18T05:11:38.277Z,13.50
2017-06-18T05:14:05.936Z,12.93
2017-06-18T05:16:33.595Z,11.60
2017-06-18T05:19:01.271Z,12.43
2017-06-18T05:21:28.922Z,14.43
2017-06-18T05:23:56.972Z,13.10
2017-06-18T05:26:24.628Z,10.57
2017-06-18T05:28:52.482Z,12.53
2017-06-18T05:31:21.388Z,11.10
2017-06-18T05:33:49.195Z,10.93
2017-06-18T05:36:16.875Z,10.17
2017-06-18T05:38:44.537Z,10.20
2017-06-18T05:41:12.674Z,10.50
2017-06-18T05:43:40.321Z,14.10
2017-06-18T05:46:07.976Z,14.33
2017-06-18T05:48:35.627Z,9.03
2017-06-18T05:51:04.029Z,8.70
2017-06-18T05:53:31.692Z,9.80
2017-06-18T05:55:59.357Z,10.10
2017-06-18T05:58:27.037Z,10.20
2017-06-18T06:00:54.685Z,9.97
2017-06-18T06:03:22.672Z,10.20
2017-06-18T06:05:50.372Z,12.10
2017-06-18T06:08:18.794Z,10.23
2017-06-18T06:10:46.484Z,12.50
2017-06-18T06:13:14.125Z,9.10
2017-06-18T06:15:41.796Z,11.47
2017-06-18T06:18:10.384Z,9.57
2017-06-18T06:20:38.405Z,8.93
2017-06-18T06:23:06.821Z,8.03
2017-06-18T06:25:34.468Z,6.90
2017-06-18T06:28:02.133Z,8.20
2017-06-18T06:30:29.801Z,10.23
2017-06-18T06:32:57.471Z,10.03
2017-06-18T06:35:25.112Z,6.80
2017-06-18T06:37:53.033Z,6.90
2017-06-18T06:40:20.673Z,7.50
2017-06-18T06:42:48.723Z,6.83
2017-06-18T06:45:16.365Z,6.77
2017-06-18T06:47:44.007Z,8.00
2017-06-18T06:50:12.425Z,6.07
2017-06-18T06:52:40.116Z,6.70
2017-06-18T06:55:07.776Z,7.50
2017-06-18T06:57:35.435Z,5.97
2017-06-18T07:00:03.311Z,6.57
2017-06-18T07:02:31.112Z,6.50
2017-06-18T07:04:59.516Z,6.70
2017-06-18T07:07:27.160Z,5.53
2017-06-18T07:09:54.805Z,5.60
2017-06-18T07:12:23.501Z,6.43
2017-06-18T07:14:51.925Z,5.73
2017-06-18T07:17:19.668Z,4.40
2017-06-18T07:19:47.443Z,5.70
2017-06-18T07:22:15.487Z,6.67
2017-06-18T07:24:43.141Z,5.93
2017-06-18T07:27:11.549Z,10.63
2017-06-18T07:29:39.227Z,5.10
2017-06-18T07:32:06.966Z,5.07
2017-06-18T07:34:34.629Z,5.70
2017-06-18T07:37:02.264Z,9.93
2017-06-18T07:39:30.855Z,5.20
2017-06-18T07:41:59.257Z,5.13
2017-06-18T07:44:27.309Z,5.57
2017-06-18T07:46:54.959Z,5.30
2017-06-18T07:49:23.378Z,7.40
2017-06-18T07:51:51.069Z,7.40
2017-06-18T07:54:18.710Z,3.90
2017-06-18T07:56:46.395Z,4.27
2017-06-18T07:59:14.026Z,3.57
2017-06-18T08:01:41.681Z,4.43
2017-06-18T08:04:09.356Z,4.90
2017-06-18T08:06:37.051Z,5.27
2017-06-18T08:09:05.689Z,6.30
2017-06-18T08:11:33.686Z,5.80
2017-06-18T08:14:01.361Z,4.53
2017-06-18T08:16:29.009Z,3.73
2017-06-18T08:18:56.699Z,5.20
2017-06-18T08:21:24.371Z,3.53
2017-06-18T08:23:53.272Z,3.87
2017-06-18T08:26:21.673Z,8.17
2017-06-18T08:28:49.322Z,4.13
2017-06-18T08:31:23.679Z,3.70
2017-06-18T08:33:51.677Z,3.63
2017-06-18T08:36:19.375Z,3.40
2017-06-18T08:38:47.025Z,2.80
2017-06-18T08:41:15.453Z,3.70
2017-06-18T08:43:43.107Z,4.40
2017-06-18T08:46:10.817Z,4.93
2017-06-18T08:48:39.241Z,5.67
2017-06-18T08:51:07.280Z,3.20
2017-06-18T08:53:35.685Z,4.33
2017-06-18T08:56:42.341Z,4.13
2017-06-18T08:59:10.012Z,2.87
2017-06-18T09:01:37.654Z,3.20
2017-06-18T09:04:06.087Z,2.23
2017-06-18T09:06:33.734Z,2.20
2017-06-18T09:09:01.388Z,2.53
2017-06-18T09:11:29.033Z,2.57
2017-06-18T09:13:56.809Z,3.20
2017-06-18T09:16:24.775Z,3.30
2017-06-18T09:18:53.995Z,3.03
2017-06-18T09:21:21.658Z,3.40
2017-06-18T09:23:49.688Z,3.30
2017-06-18T09:26:18.385Z,4.20
2017-06-18T09:28:46.050Z,3.23
2017-06-18T09:31:13.724Z,3.30
2017-06-18T09:33:41.411Z,3.10
2017-06-18T09:36:09.082Z,3.57
2017-06-18T09:38:37.538Z,3.80
2017-06-18T09:41:05.201Z,3.30
2017-06-18T09:43:32.875Z,3.50
2017-06-18T09:46:00.773Z,4.50
2017-06-18T09:48:29.509Z,3.00
2017-06-18T09:50:57.173Z,3.77
2017-06-18T09:53:25.068Z,5.43
2017-06-18T09:55:52.725Z,3.80
2017-06-18T09:58:20.399Z,2.50
2017-06-18T10:00:48.065Z,5.43
2017-06-18T10:03:16.153Z,5.47
2017-06-18T10:05:43.817Z,3.73
2017-06-18T10:08:12.446Z,3.30
2017-06-18T10:10:40.810Z,3.33
2017-06-18T10:13:08.476Z,4.43
2017-06-18T10:15:36.161Z,3.00
2017-06-18T10:18:03.810Z,2.13
2017-06-18T10:20:31.481Z,2.57
2017-06-18T10:22:59.139Z,3.23
2017-06-18T10:25:27.282Z,2.13
2017-06-18T10:27:54.932Z,2.00
2017-06-18T10:30:23.363Z,1.73
2017-06-18T10:32:51.043Z,2.13
2017-06-18T10:35:18.898Z,2.10
2017-06-18T10:37:46.644Z,2.13
2017-06-18T10:40:14.556Z,1.60
2017-06-18T10:42:42.256Z,3.40
2017-06-18T10:45:10.004Z,1.87
2017-06-18T10:47:37.684Z,3.10
2017-06-18T10:50:05.327Z,2.10
2017-06-18T10:52:34.121Z,2.10
2017-06-18T10:55:01.767Z,3.43
2017-06-18T10:57:30.309Z,2.03
2017-06-18T10:59:57.996Z,2.60
2017-06-18T11:02:25.668Z,4.17
2017-06-18T11:04:54.454Z,2.67
2017-06-18T11:07:22.115Z,2.93
2017-06-18T11:09:49.770Z,2.27
2017-06-18T11:12:17.464Z,2.30
2017-06-18T11:14:45.106Z,2.80
2017-06-18T11:17:13.972Z,2.50
2017-06-18T11:19:41.805Z,2.17
2017-06-18T11:22:10.108Z,2.70
2017-06-18T11:24:37.821Z,2.63
2017-06-18T11:27:05.485Z,5.60
2017-06-18T11:29:33.163Z,2.20
2017-06-18T11:32:00.814Z,3.40
2017-06-18T11:34:28.482Z,2.97
2017-06-18T11:36:56.134Z,3.10
2017-06-18T11:39:24.212Z,2.20
2017-06-18T11:41:51.853Z,3.00
2017-06-18T11:44:20.276Z,2.67
2017-06-18T11:46:48.256Z,2.60
2017-06-18T11:49:15.976Z,2.37
2017-06-18T11:51:43.694Z,2.20
2017-06-18T11:54:11.672Z,2.27
2017-06-18T11:56:39.397Z,2.73
2017-06-18T11:59:07.038Z,2.67
2017-06-18T12:01:35.010Z,2.93
2017-06-18T12:04:02.685Z,2.30
2017-06-18T12:06:30.347Z,3.10
2017-06-18T12:08:58.033Z,2.90
2017-06-18T12:11:25.671Z,3.00
2017-06-18T12:13:53.731Z,2.27
2017-06-18T12:16:21.402Z,2.70
2017-06-18T12:18:49.074Z,2.73
2017-06-18T12:21:17.208Z,2.73
2017-06-18T12:23:45.638Z,4.67
2017-06-18T12:26:13.297Z,2.10
2017-06-18T12:28:41.320Z,2.40
2017-06-18T12:31:09.737Z,2.53
2017-06-18T12:33:37.386Z,2.83
2017-06-18T12:36:05.265Z,3.90
2017-06-18T12:38:32.925Z,6.70
2017-06-18T12:41:00.638Z,2.70
2017-06-18T12:43:28.303Z,3.20
2017-06-18T12:45:56.743Z,3.10
2017-06-18T12:48:24.412Z,4.50
2017-06-18T12:50:52.557Z,2.93
2017-06-18T12:53:20.210Z,2.80
2017-06-18T12:55:47.852Z,2.53
2017-06-18T12:58:16.632Z,2.80
2017-06-18T13:00:45.164Z,2.53
2017-06-18T13:03:12.837Z,2.67
2017-06-18T13:05:40.528Z,3.73
2017-06-18T13:08:08.165Z,3.27
2017-06-18T13:10:36.145Z,3.87
2017-06-18T13:13:03.884Z,2.33
2017-06-18T13:15:31.909Z,3.10
2017-06-18T13:18:00.323Z,2.93
2017-06-18T13:20:28.508Z,3.87
2017-06-18T13:22:56.163Z,3.13
2017-06-18T13:25:23.820Z,3.50
2017-06-18T13:27:51.493Z,2.93
2017-06-18T13:30:19.161Z,3.03
2017-06-18T13:32:46.861Z,3.03
2017-06-18T13:35:15.290Z,2.80
2017-06-18T13:37:42.969Z,4.60
2017-06-18T13:40:10.638Z,3.10
2017-06-18T13:42:38.787Z,7.27
2017-06-18T13:45:06.445Z,2.60
2017-06-18T13:47:34.085Z,2.83
2017-06-18T13:50:02.505Z,2.57
2017-06-18T13:52:30.357Z,3.17
2017-06-18T13:54:58.148Z,4.30
2017-06-18T13:57:25.800Z,2.80
2017-06-18T13:59:53.836Z,3.67
2017-06-18T14:02:21.519Z,2.40
2017-06-18T14:04:49.169Z,2.90
2017-06-18T14:07:16.847Z,3.17
2017-06-18T14:09:44.510Z,2.93
2017-06-18T14:12:12.176Z,3.30
2017-06-18T14:14:39.856Z,2.67
2017-06-18T14:17:07.544Z,2.97
2017-06-18T14:19:35.964Z,2.87
2017-06-18T14:22:03.999Z,2.87
2017-06-18T14:24:32.445Z,3.13
2017-06-18T14:27:00.104Z,2.53
2017-06-18T14:29:27.803Z,2.40
2017-06-18T14:31:56.230Z,5.33
2017-06-18T14:34:23.911Z,2.83
2017-06-18T14:36:51.568Z,2.70
2017-06-18T14:39:19.239Z,2.40
2017-06-18T14:41:46.903Z,2.83
2017-06-18T14:44:14.920Z,3.03
2017-06-18T14:46:42.594Z,2.83
2017-06-18T14:49:10.395Z,2.83
2017-06-18T14:51:38.630Z,2.27
2017-06-18T14:54:06.285Z,2.53
2017-06-18T14:56:33.953Z,3.20
2017-06-18T14:59:01.616Z,3.30
2017-06-18T15:01:29.294Z,4.13
2017-06-18T15:03:56.978Z,2.77
2017-06-18T15:06:24.696Z,3.07
2017-06-18T15:08:52.363Z,2.77
2017-06-18T15:11:20.413Z,4.40
2017-06-18T15:13:48.816Z,2.80
2017-06-18T15:16:16.485Z,2.70
2017-06-18T15:18:44.541Z,2.83
2017-06-18T15:21:12.205Z,2.83
2017-06-18T15:23:39.941Z,2.77
2017-06-18T15:26:07.941Z,4.60
2017-06-18T15:28:35.595Z,2.50
2017-06-18T15:31:03.242Z,2.30
2017-06-18T15:33:32.045Z,3.20
2017-06-18T15:36:00.471Z,6.73
2017-06-18T15:38:28.125Z,2.57
2017-06-18T15:40:56.156Z,2.60
2017-06-18T15:43:24.642Z,2.33
2017-06-18T15:45:52.346Z,2.73
2017-06-18T15:48:20.366Z,2.77
2017-06-18T15:50:48.801Z,3.07
2017-06-18T15:53:16.456Z,2.17
2017-06-18T15:55:44.560Z,3.20
2017-06-18T15:58:12.239Z,3.57
2017-06-18T16:00:39.944Z,3.57
2017-06-18T16:03:07.978Z,4.47
2017-06-18T16:05:36.393Z,2.53
2017-06-18T16:08:04.049Z,2.83
2017-06-18T16:10:32.087Z,2.67
2017-06-18T16:13:00.659Z,3.93
2017-06-18T16:15:29.082Z,4.50
2017-06-18T16:17:57.279Z,3.17
2017-06-18T16:20:25.176Z,2.43
2017-06-18T16:22:52.887Z,3.40
2017-06-18T16:25:20.940Z,2.30
2017-06-18T16:27:48.596Z,3.00
2017-06-18T16:30:16.265Z,2.70
2017-06-18T16:32:44.241Z,2.90
2017-06-18T16:35:11.889Z,3.13
2017-06-18T16:37:39.549Z,3.37
2017-06-18T16:40:07.624Z,3.07
2017-06-18T16:42:35.307Z,2.83
2017-06-18T16:45:03.806Z,2.80
2017-06-18T16:47:31.928Z,4.67
2017-06-18T16:50:00.494Z,2.87
2017-06-18T16:52:28.951Z,2.70
2017-06-18T16:54:57.045Z,2.93
2017-06-18T16:57:24.692Z,2.90
2017-06-18T16:59:52.352Z,2.73
2017-06-18T17:02:20.391Z,2.50
2017-06-18T17:04:48.121Z,2.70
2017-06-18T17:07:16.555Z,2.70
2017-06-18T17:09:44.595Z,2.60
2017-06-18T17:12:12.254Z,2.40
2017-06-18T17:14:39.906Z,2.27
2017-06-18T17:17:07.886Z,2.73
2017-06-18T17:19:36.011Z,2.57
2017-06-18T17:22:09.569Z,2.47
2017-06-18T17:24:37.249Z,2.80
2017-06-18T17:27:04.908Z,4.33
2017-06-18T17:29:32.951Z,2.60
2017-06-18T17:32:00.618Z,2.53
2017-06-18T17:34:28.281Z,3.00
2017-06-18T17:36:56.331Z,2.10
2017-06-18T17:39:24.776Z,3.70
2017-06-18T17:41:52.423Z,2.30
2017-06-18T17:44:20.463Z,2.30
2017-06-18T17:46:48.118Z,2.83
2017-06-18T17:49:15.771Z,2.90
2017-06-18T17:51:44.536Z,2.53
2017-06-18T17:54:12.207Z,2.37
2017-06-18T17:56:40.640Z,2.93
2017-06-18T17:59:08.644Z,4.00
2017-06-18T18:01:36.453Z,2.77
2017-06-18T18:04:04.107Z,2.40
2017-06-18T18:06:32.203Z,3.17
2017-06-18T18:08:59.889Z,2.63
2017-06-18T18:11:27.566Z,6.67
2017-06-18T18:13:55.613Z,4.43
2017-06-18T18:16:23.284Z,2.97
2017-06-18T18:18:50.933Z,4.10
2017-06-18T18:21:18.976Z,2.90
2017-06-18T18:23:46.639Z,2.80
2017-06-18T18:26:14.343Z,3.60
2017-06-18T18:28:42.361Z,2.80
2017-06-18T18:31:10.911Z,2.80
2017-06-18T18:33:38.710Z,2.13
2017-06-18T18:36:06.861Z,2.60
2017-06-18T18:38:34.533Z,3.97
2017-06-18T18:41:03.017Z,2.53
2017-06-18T18:43:31.827Z,2.83
2017-06-18T18:45:59.471Z,2.50
2017-06-18T18:48:27.131Z,2.23
2017-06-18T18:50:55.781Z,3.43
2017-06-18T18:53:23.447Z,2.40
2017-06-18T18:55:51.126Z,2.53
2017-06-18T18:58:20.411Z,2.10
2017-06-18T19:00:48.190Z,2.70
2017-06-18T19:03:17.301Z,2.97
2017-06-18T19:05:46.111Z,2.57
2017-06-18T19:08:14.099Z,2.77
2017-06-18T19:10:41.826Z,2.87
2017-06-18T19:13:10.752Z,2.90
2017-06-18T19:15:38.434Z,2.53
2017-06-18T19:27:51.162Z,4.60
2017-06-18T19:30:18.843Z,3.53
2017-06-18T19:32:46.515Z,3.50
2017-06-18T19:35:14.216Z,3.33
2017-06-18T19:37:42.968Z,3.47
2017-06-18T19:40:11.134Z,3.10
2017-06-18T19:42:38.853Z,4.40
2017-06-18T19:45:08.470Z,9.40
2017-06-18T19:47:36.495Z,2.83
2017-06-18T19:50:04.220Z,4.80
2017-06-18T19:52:31.888Z,3.13
2017-06-18T19:54:59.958Z,2.80
2017-06-18T19:57:27.825Z,3.03
2017-06-18T19:59:55.543Z,2.60
2017-06-18T20:02:28.186Z,3.70
2017-06-18T20:04:55.860Z,2.80
2017-06-18T20:07:23.524Z,2.80
2017-06-18T20:09:51.534Z,2.50
2017-06-18T20:12:20.082Z,4.23
2017-06-18T20:14:47.869Z,2.90
2017-06-18T20:17:16.707Z,2.83
2017-06-18T20:19:44.503Z,2.90
2017-06-18T20:22:12.168Z,2.87
2017-06-18T20:24:40.266Z,2.10
2017-06-18T20:27:08.727Z,2.53
2017-06-18T20:29:36.412Z,3.73
2017-06-18T20:32:05.244Z,3.00
2017-06-18T20:34:32.944Z,3.70
2017-06-18T20:37:00.642Z,2.40
2017-06-18T20:39:29.447Z,2.53
2017-06-18T20:41:57.112Z,2.67
2017-06-18T20:44:24.778Z,2.77
2017-06-18T20:46:52.932Z,2.50
2017-06-18T20:49:20.808Z,2.80
2017-06-18T20:51:48.499Z,2.30
2017-06-18T20:54:16.531Z,5.70
2017-06-18T20:56:44.177Z,2.70
2017-06-18T20:59:12.601Z,4.73
2017-06-18T21:01:40.754Z,3.40
2017-06-18T21:04:08.402Z,3.27
2017-06-18T21:06:36.830Z,3.53
2017-06-18T21:09:04.920Z,2.90
2017-06-18T21:11:32.592Z,2.93
2017-06-18T21:14:00.257Z,7.03
2017-06-18T21:16:28.245Z,3.47
2017-06-18T21:18:56.792Z,3.47
2017-06-18T21:21:24.439Z,4.83
2017-06-18T21:23:52.465Z,2.90
2017-06-18T21:26:20.883Z,3.40
2017-06-18T21:28:48.532Z,2.63
